Time;durP1;ratioP1;P1;durP2;ratioP2;P2;SDS_P1;SDS_P2;PMS_P1;PMS_P2;Temp;Humidity;BMP_temperature;BMP_pressure;BME280_temperature;BME280_humidity;BME280_pressure;Samples;Min_cycle;Max_cycle;Signal;HPM_P1;HPM_P2
2023/10/18 00:01:55;;;;;;;2.77;2.53;;;;;;;22.27;57.56;97300.41;4975222;28;20254;-24
2023/10/18 00:04:23;;;;;;;2.50;2.30;;;;;;;22.28;58.09;97293.56;4973563;28;20588;-25
2023/10/18 00:06:54;;;;;;;3.40;2.43;;;;;;;22.28;57.45;97291.88;4974339;28;20238;-25
2023/10/18 00:12:07;;;;;;;2.97;2.30;;;;;;;22.28;57.58;97279.06;4974009;28;20492;-25
2023/10/18 00:14:35;;;;;;;2.40;2.20;;;;;;;22.27;57.55;97273.94;4976846;28;20218;-25
2023/10/18 00:17:01;;;;;;;2.63;2.43;;;;;;;22.28;57.49;97275.66;4974475;28;20273;-25
2023/10/18 00:19:28;;;;;;;2.57;2.37;;;;;;;22.27;57.42;97274.81;4978085;28;20231;-25
2023/10/18 00:21:55;;;;;;;2.50;2.10;;;;;;;22.26;57.58;97275.63;4972086;28;20290;-25
2023/10/18 00:24:21;;;;;;;2.87;2.30;;;;;;;22.26;57.64;97270.50;4974785;28;20212;-25
2023/10/18 00:26:48;;;;;;;2.30;2.10;;;;;;;22.27;57.47;97268.81;4979475;28;20254;-24
2023/10/18 00:29:18;;;;;;;3.80;2.70;;;;;;;22.26;57.65;97273.06;4973872;28;20223;-25
2023/10/18 00:31:44;;;;;;;2.40;2.20;;;;;;;22.27;57.55;97272.25;4971245;28;20264;-25
2023/10/18 00:34:11;;;;;;;2.67;2.40;;;;;;;22.21;57.51;97261.88;4972489;28;20670;-25
2023/10/18 00:36:39;;;;;;;2.47;2.27;;;;;;;22.26;57.68;97261.97;4975742;28;20886;-25
2023/10/18 00:39:20;;;;;;;2.37;2.17;;;;;;;22.26;57.59;97255.13;4970535;28;20223;-25
2023/10/18 00:41:48;;;;;;;2.53;2.33;;;;;;;22.27;57.56;97259.44;4970463;28;20246;-25
2023/10/18 00:44:15;;;;;;;2.60;2.40;;;;;;;22.27;57.67;97246.63;4963109;28;20299;-25
2023/10/18 00:46:41;;;;;;;2.40;2.20;;;;;;;22.24;57.68;97236.34;4977464;28;20233;-25
2023/10/18 00:49:14;;;;;;;2.43;2.23;;;;;;;22.27;57.59;97236.41;4953907;28;20231;-25
2023/10/18 00:51:42;;;;;;;2.63;2.43;;;;;;;22.26;57.66;97237.22;4974334;28;20212;-25
2023/10/18 00:54:11;;;;;;;2.73;2.53;;;;;;;22.26;57.69;97228.69;4958169;28;20195;-25
2023/10/18 00:56:43;;;;;;;2.43;2.23;;;;;;;22.27;57.52;97227.84;4975399;28;20288;-25
2023/10/18 00:59:21;;;;;;;2.60;2.40;;;;;;;22.26;57.49;97226.13;4974818;28;20251;-24
2023/10/18 01:01:55;;;;;;;2.30;2.10;;;;;;;22.26;57.65;97229.53;4978223;28;20298;-25
2023/10/18 01:04:24;;;;;;;2.57;2.37;;;;;;;22.25;57.68;97222.69;4971672;28;20204;-25
2023/10/18 01:06:50;;;;;;;2.50;2.30;;;;;;;22.26;57.65;97228.69;4978469;28;20225;-25
2023/10/18 01:09:17;;;;;;;3.23;2.70;;;;;;;22.25;57.70;97221.81;4969785;28;20242;-25
2023/10/18 01:11:46;;;;;;;2.67;2.10;;;;;;;22.26;57.76;97218.44;4984258;28;20658;-25
2023/10/18 01:14:18;;;;;;;2.17;2.03;;;;;;;22.25;57.67;97219.25;4976395;28;20251;-25
2023/10/18 01:16:45;;;;;;;2.60;2.33;;;;;;;22.26;57.55;97214.16;4979361;28;20266;-25
2023/10/18 01:19:15;;;;;;;2.40;2.20;;;;;;;22.25;57.67;97211.56;4983363;28;20237;-25
2023/10/18 01:21:45;;;;;;;2.80;2.30;;;;;;;22.26;57.61;97211.63;4975270;28;20666;-24
2023/10/18 01:24:15;;;;;;;2.30;2.10;;;;;;;22.26;57.66;97213.31;4982869;28;20235;-25
2023/10/18 01:26:42;;;;;;;2.50;2.30;;;;;;;22.26;57.74;97205.66;4975925;28;20282;-25
2023/10/18 01:29:09;;;;;;;2.43;2.23;;;;;;;22.25;57.75;97207.34;4974926;28;20226;-24
2023/10/18 01:31:36;;;;;;;3.40;2.40;;;;;;;22.25;58.00;97209.91;4976232;28;20254;-25
2023/10/18 01:34:05;;;;;;;2.50;2.30;;;;;;;22.25;57.53;97212.44;4976515;28;20291;-25
2023/10/18 01:36:32;;;;;;;2.50;2.30;;;;;;;22.25;57.60;97206.47;4974510;28;20251;-25
2023/10/18 01:38:59;;;;;;;2.37;2.17;;;;;;;22.23;57.59;97203.88;4974590;28;20223;-25
2023/10/18 01:41:25;;;;;;;2.73;2.50;;;;;;;22.24;57.48;97205.63;4972989;28;20210;-25
2023/10/18 01:43:58;;;;;;;2.77;2.50;;;;;;;22.23;57.63;97200.47;4974217;28;20203;-25
2023/10/18 01:46:25;;;;;;;2.40;2.20;;;;;;;22.23;57.93;97198.75;4974452;28;20635;-25
2023/10/18 01:48:52;;;;;;;2.87;2.37;;;;;;;22.24;57.73;97194.50;4974676;28;20227;-25
2023/10/18 01:51:19;;;;;;;2.80;2.60;;;;;;;22.24;57.78;97194.50;4972469;28;20671;-25
2023/10/18 01:53:46;;;;;;;2.70;2.50;;;;;;;22.23;57.84;97196.19;4977829;28;20204;-25
2023/10/18 01:56:17;;;;;;;2.80;2.40;;;;;;;22.24;57.69;97197.94;4973964;28;20281;-25
2023/10/18 01:58:46;;;;;;;2.77;2.57;;;;;;;22.24;57.84;97194.50;4981477;28;20232;-25
2023/10/18 02:01:16;;;;;;;2.60;2.40;;;;;;;22.23;57.70;97185.09;4973826;28;20210;-24
2023/10/18 02:03:44;;;;;;;2.60;2.40;;;;;;;22.23;57.71;97183.38;4973372;28;20590;-25
2023/10/18 02:06:14;;;;;;;2.23;2.10;;;;;;;22.23;57.77;97185.09;4973963;28;20200;-25
2023/10/18 02:08:41;;;;;;;2.47;2.27;;;;;;;22.24;57.85;97191.94;4973990;28;20923;-25
2023/10/18 02:11:09;;;;;;;2.40;2.20;;;;;;;22.23;57.63;97188.50;4975270;28;20210;-25
2023/10/18 02:13:39;;;;;;;2.73;2.43;;;;;;;22.23;57.58;97193.63;4973857;28;20254;-25
2023/10/18 02:16:14;;;;;;;2.80;2.40;;;;;;;22.23;57.68;97185.09;4973637;28;20260;-25
2023/10/18 02:18:41;;;;;;;2.50;2.30;;;;;;;22.23;57.75;97190.22;4973755;28;20277;-25
2023/10/18 02:21:08;;;;;;;2.57;2.10;;;;;;;22.24;57.83;97189.38;4974121;28;20663;-25
2023/10/18 02:23:34;;;;;;;2.57;2.37;;;;;;;22.22;57.84;97179.13;4978347;28;20204;-25
2023/10/18 02:26:09;;;;;;;2.67;2.37;;;;;;;22.22;57.78;97174.00;4980221;28;20195;-25
2023/10/18 02:28:36;;;;;;;2.30;2.10;;;;;;;22.23;57.89;97177.44;4974757;28;20588;-25
2023/10/18 02:31:13;;;;;;;2.40;2.20;;;;;;;22.22;58.01;97179.13;4979179;28;20210;-25
2023/10/18 02:33:42;;;;;;;2.40;2.20;;;;;;;22.22;57.74;97175.69;4967855;28;20209;-25
2023/10/18 02:36:12;;;;;;;2.70;2.37;;;;;;;22.22;57.97;97174.00;4978710;28;20486;-25
2023/10/18 02:38:40;;;;;;;2.30;2.10;;;;;;;22.23;57.92;97177.44;4980582;28;20231;-25
2023/10/18 02:41:15;;;;;;;2.20;2.00;;;;;;;22.22;57.94;97174.00;4973173;28;20650;-25
2023/10/18 02:43:54;;;;;;;2.17;1.97;;;;;;;22.23;57.93;97164.63;4980080;28;20242;-24
2023/10/18 02:46:24;;;;;;;2.27;2.07;;;;;;;22.21;57.81;97156.91;4976254;28;20203;-25
2023/10/18 02:48:52;;;;;;;3.97;2.10;;;;;;;22.22;57.67;97162.88;4979415;28;20267;-25
2023/10/18 02:51:22;;;;;;;2.30;2.10;;;;;;;22.23;57.71;97156.94;4976342;28;20233;-25
2023/10/18 02:53:51;;;;;;;2.87;2.57;;;;;;;22.22;57.76;97153.50;4973478;28;20200;-25
2023/10/18 02:56:20;;;;;;;2.30;2.10;;;;;;;22.22;57.93;97152.63;4978571;28;20518;-25
2023/10/18 02:58:47;;;;;;;2.40;2.20;;;;;;;22.21;57.77;97145.81;4972769;28;20290;-25
2023/10/18 03:01:19;;;;;;;2.60;2.40;;;;;;;22.21;57.75;97140.69;4977838;28;20237;-24
2023/10/18 03:03:46;;;;;;;2.33;2.13;;;;;;;22.22;57.82;97134.72;4973016;28;20203;-24
2023/10/18 03:06:13;;;;;;;2.70;2.50;;;;;;;22.18;57.89;97133.81;4973366;28;20614;-25
2023/10/18 03:08:44;;;;;;;2.40;2.20;;;;;;;22.22;57.70;97132.16;4972767;28;20646;-25
2023/10/18 03:11:13;;;;;;;2.67;2.47;;;;;;;22.23;57.66;97131.34;4970781;28;20199;-25
2023/10/18 03:13:39;;;;;;;2.50;2.30;;;;;;;22.22;57.89;97130.47;4966402;28;20294;-25
2023/10/18 03:16:15;;;;;;;2.43;2.23;;;;;;;22.22;57.73;97122.78;4972354;28;20200;-24
2023/10/18 03:18:45;;;;;;;2.30;2.10;;;;;;;22.22;57.78;97122.78;4972791;28;20219;-25
2023/10/18 03:21:20;;;;;;;2.50;2.27;;;;;;;22.22;57.96;97110.00;4972500;28;20203;-25
2023/10/18 03:23:51;;;;;;;2.40;2.20;;;;;;;22.22;57.64;97111.69;4971658;28;20202;-25
2023/10/18 03:26:35;;;;;;;2.53;2.33;;;;;;;22.22;57.70;97117.69;4972720;28;20254;-25
2023/10/18 03:29:17;;;;;;;2.43;2.23;;;;;;;22.22;57.51;97109.13;4968827;28;20223;-25
2023/10/18 03:31:44;;;;;;;3.07;2.70;;;;;;;22.22;57.68;97109.13;4968379;28;20250;-25
2023/10/18 03:34:22;;;;;;;3.30;2.30;;;;;;;22.21;57.65;97108.28;4972368;28;20203;-25
2023/10/18 03:36:48;;;;;;;2.20;2.00;;;;;;;22.22;57.72;97106.56;4972264;28;20223;-25
2023/10/18 03:39:16;;;;;;;2.80;2.37;;;;;;;22.21;57.61;97110.84;4972673;28;20216;-24
2023/10/18 03:41:43;;;;;;;2.30;2.10;;;;;;;22.22;57.70;97106.56;4972569;28;20214;-25
2023/10/18 03:44:13;;;;;;;2.40;2.20;;;;;;;22.22;57.72;97110.00;4972272;28;20208;-24
2023/10/18 03:46:48;;;;;;;2.37;2.17;;;;;;;22.24;57.60;97112.59;4972712;28;20208;-25
2023/10/18 03:49:31;;;;;;;2.23;2.03;;;;;;;22.25;57.59;97109.19;4972166;28;20721;-24
2023/10/18 03:52:02;;;;;;;1.93;1.80;;;;;;;22.26;57.65;97103.25;4972446;28;20306;-25
2023/10/18 03:54:43;;;;;;;2.50;2.30;;;;;;;22.26;57.61;97093.84;4972030;28;20199;-25
2023/10/18 03:57:16;;;;;;;2.47;2.27;;;;;;;22.28;57.51;97086.22;4971609;28;20659;-24
2023/10/18 03:59:45;;;;;;;2.57;2.37;;;;;;;22.29;57.38;97077.72;4972256;28;20219;-24
2023/10/18 04:04:50;;;;;;;2.20;2.00;;;;;;;22.28;57.40;97065.72;4972422;28;20575;-25
2023/10/18 04:07:16;;;;;;;2.20;2.00;;;;;;;22.28;57.25;97064.03;4971976;28;20208;-24
2023/10/18 04:10:27;;;;;;;2.27;2.13;;;;;;;22.26;57.07;97070.81;4971967;28;20226;-25
2023/10/18 04:12:34;;;;;;;2.50;2.30;;;;;;;22.28;57.20;97076.84;4958393;28;20195;-25
2023/10/18 04:15:00;;;;;;;2.43;2.23;;;;;;;22.27;57.37;97072.56;4972045;28;20210;-25
2023/10/18 04:17:37;;;;;;;2.37;2.17;;;;;;;22.27;57.37;97067.44;4972373;28;20641;-25
2023/10/18 04:20:09;;;;;;;2.40;2.20;;;;;;;22.27;57.40;97070.00;4971250;28;20734;-25
2023/10/18 04:22:36;;;;;;;2.40;2.20;;;;;;;22.28;57.53;97065.72;4971911;28;20200;-25
2023/10/18 04:25:14;;;;;;;2.27;2.17;;;;;;;22.24;57.28;97058.84;4971845;28;20235;-25
2023/10/18 04:27:42;;;;;;;2.40;2.20;;;;;;;22.27;57.36;97058.91;4968477;28;20192;-24
2023/10/18 04:30:11;;;;;;;2.60;2.40;;;;;;;22.27;57.48;97076.81;4975037;28;20319;-25
2023/10/18 04:32:38;;;;;;;2.50;2.30;;;;;;;22.26;57.48;97073.38;4975576;28;20683;-25
2023/10/18 04:35:15;;;;;;;2.50;2.30;;;;;;;22.27;57.34;97074.25;4975749;28;20274;-25
2023/10/18 04:37:43;;;;;;;2.30;2.10;;;;;;;22.27;57.30;97077.69;4975617;28;20307;-25
2023/10/18 04:40:22;;;;;;;2.70;2.20;;;;;;;22.27;57.62;97064.88;4975359;28;20238;-25
2023/10/18 04:42:54;;;;;;;2.40;2.20;;;;;;;22.27;57.61;97061.44;4971023;28;20247;-25
2023/10/18 04:45:23;;;;;;;2.53;2.33;;;;;;;22.27;57.48;97057.22;4975159;28;20234;-24
2023/10/18 04:47:57;;;;;;;2.50;2.30;;;;;;;22.26;57.51;97047.78;4975280;28;20246;-25
2023/10/18 04:50:32;;;;;;;2.30;2.10;;;;;;;22.22;57.50;97050.25;4984227;28;20568;-25
2023/10/18 04:53:00;;;;;;;4.07;2.20;;;;;;;22.25;57.57;97051.19;4979318;28;20196;-25
2023/10/18 04:55:27;;;;;;;2.80;2.60;;;;;;;22.26;57.51;97058.03;4975483;28;20207;-24
2023/10/18 04:57:53;;;;;;;2.50;2.30;;;;;;;22.25;57.60;97048.63;4975278;28;20220;-25
2023/10/18 05:00:35;;;;;;;4.60;2.60;;;;;;;22.27;57.55;97046.09;4973854;28;20223;-24
2023/10/18 05:03:07;;;;;;;4.17;2.80;;;;;;;22.27;57.65;97038.41;4972226;28;20274;-25
2023/10/18 05:05:44;;;;;;;3.63;2.57;;;;;;;22.27;57.52;97043.53;4975292;28;20203;-25
2023/10/18 05:08:15;;;;;;;2.53;2.27;;;;;;;22.28;57.63;97040.13;4974413;28;20282;-25
2023/10/18 05:10:45;;;;;;;2.93;2.63;;;;;;;22.28;57.62;97037.56;4972412;28;20223;-25
2023/10/18 05:16:04;;;;;;;2.80;2.53;;;;;;;22.28;57.71;97051.25;4972765;28;20296;-25
2023/10/18 05:18:31;;;;;;;3.83;2.37;;;;;;;22.28;57.62;97053.81;4974932;28;20274;-25
2023/10/18 05:20:58;;;;;;;2.47;2.27;;;;;;;22.27;57.42;97053.78;4975111;28;20290;-25
2023/10/18 05:23:32;;;;;;;4.57;2.60;;;;;;;22.28;57.49;97055.50;4974826;28;20246;-25
2023/10/18 05:28:52;;;;;;;2.67;2.40;;;;;;;22.26;57.66;97047.78;4974615;28;20203;-25
2023/10/18 05:36:54;;;;;;;3.17;2.63;;;;;;;22.27;57.91;97039.28;4974782;28;20616;-25
2023/10/18 05:41:51;;;;;;;3.03;2.30;;;;;;;22.28;57.91;97041.00;4974634;28;20195;-25
2023/10/18 05:44:20;;;;;;;2.73;2.50;;;;;;;22.29;57.92;97039.31;4974512;28;20675;-25
2023/10/18 05:46:50;;;;;;;3.40;2.43;;;;;;;22.29;57.88;97047.00;4973429;28;20203;-25
2023/10/18 05:49:23;;;;;;;2.93;2.30;;;;;;;22.28;57.84;97046.13;4974016;28;20230;-24
2023/10/18 05:52:37;;;;;;;2.50;2.30;;;;;;;22.31;57.88;97052.97;4968061;28;20228;-25
2023/10/18 05:54:43;;;;;;;3.90;2.43;;;;;;;22.30;57.88;97041.91;4966417;28;20204;-25
2023/10/18 05:57:15;;;;;;;2.87;2.40;;;;;;;22.30;57.94;97041.03;4974199;28;20220;-24
2023/10/18 05:59:46;;;;;;;2.80;2.50;;;;;;;22.29;57.74;97040.16;4970347;28;20782;-25
2023/10/18 06:02:22;;;;;;;2.97;2.67;;;;;;;22.29;56.11;97041.88;4974544;28;20208;-25
2023/10/18 06:04:51;;;;;;;4.23;2.70;;;;;;;22.27;55.84;97044.41;4982191;28;20405;-25
2023/10/18 06:07:22;;;;;;;4.40;3.23;;;;;;;22.25;52.23;97040.94;4974310;28;20275;-25
2023/10/18 06:12:36;;;;;;;5.70;4.80;;;;;;;22.19;48.11;97032.28;4974075;28;20203;-25
2023/10/18 06:15:11;;;;;;;8.33;5.43;;;;;;;22.15;46.50;97030.50;4973996;28;20738;-25
2023/10/18 06:20:28;;;;;;;7.13;5.03;;;;;;;22.14;47.14;97029.63;4973220;28;20319;-25
2023/10/18 06:23:23;;;;;;;7.90;5.13;;;;;;;22.15;48.39;97025.38;4967166;28;20250;-25
2023/10/18 06:25:57;;;;;;;8.70;4.93;;;;;;;22.14;49.43;97021.13;4972345;28;20210;-25
2023/10/18 06:28:25;;;;;;;6.97;5.07;;;;;;;22.13;50.14;97015.13;4973466;28;20611;-24
2023/10/18 06:30:52;;;;;;;7.00;4.80;;;;;;;22.12;50.52;97023.66;4965620;28;20207;-25
2023/10/18 06:33:20;;;;;;;7.30;4.67;;;;;;;22.12;50.84;97015.09;4973311;28;20616;-25
2023/10/18 06:35:52;;;;;;;7.07;4.33;;;;;;;22.11;51.13;97021.91;4972777;28;20204;-24
2023/10/18 06:38:23;;;;;;;5.80;4.30;;;;;;;22.13;51.75;97019.38;4973441;28;20251;-25
2023/10/18 06:40:59;;;;;;;6.73;4.83;;;;;;;22.12;52.26;97021.09;4952657;28;20204;-25
2023/10/18 06:43:32;;;;;;;7.30;4.50;;;;;;;22.13;51.53;97019.38;4971544;28;20547;-25
2023/10/18 06:45:59;;;;;;;8.00;5.27;;;;;;;22.12;49.41;97020.22;4973325;28;20211;-25
2023/10/18 06:48:28;;;;;;;9.43;5.43;;;;;;;22.11;47.86;97016.78;4972509;28;20688;-24
2023/10/18 06:50:55;;;;;;;7.10;5.10;;;;;;;22.07;47.19;97021.81;4973273;28;20603;-24
2023/10/18 06:53:22;;;;;;;5.90;4.90;;;;;;;22.11;45.86;97021.06;4973018;28;20223;-25
2023/10/18 06:56:13;;;;;;;8.00;5.67;;;;;;;22.10;45.49;97016.75;4972003;28;20590;-25
2023/10/18 07:03:56;;;;;;;6.23;5.23;;;;;;;22.08;44.52;97024.41;4936149;28;20214;-25
2023/10/18 07:06:29;;;;;;;10.23;5.17;;;;;;;22.08;45.80;97013.31;4958041;28;20544;-25
2023/10/18 07:08:56;;;;;;;6.87;5.50;;;;;;;;;;4960590;28;20219;-25
2023/10/18 07:11:23;;;;;;;7.93;4.93;;;;;;;22.06;46.28;97013.28;4959667;28;20243;-25
2023/10/18 07:14:07;;;;;;;6.40;4.90;;;;;;;22.06;46.99;97014.97;4959351;28;20211;-24
2023/10/18 07:19:06;;;;;;;5.77;4.60;;;;;;;22.03;47.39;97008.13;4958527;28;20227;-25
2023/10/18 07:21:33;;;;;;;9.90;4.50;;;;;;;22.03;47.85;97004.69;4958985;28;20215;-25
2023/10/18 07:24:09;;;;;;;5.60;4.80;;;;;;;22.03;48.36;96997.88;4960305;28;20302;-25
2023/10/18 07:26:38;;;;;;;5.80;4.63;;;;;;;22.03;48.27;97002.13;4958268;28;20207;-25
2023/10/18 07:29:08;;;;;;;5.17;4.50;;;;;;;22.02;48.50;97003.81;4959706;28;20268;-25
2023/10/18 07:31:47;;;;;;;4.70;4.20;;;;;;;22.02;48.62;97008.94;4959868;28;20211;-24
2023/10/18 07:34:28;;;;;;;5.13;4.07;;;;;;;21.90;48.51;96988.22;4958685;28;20365;-25
2023/10/18 07:36:56;;;;;;;6.53;4.70;;;;;;;22.02;48.81;97002.97;4950563;28;20219;-25
2023/10/18 07:39:25;;;;;;;5.63;4.60;;;;;;;22.01;48.88;97006.34;4960463;28;20235;-25
2023/10/18 07:41:53;;;;;;;5.93;4.50;;;;;;;22.00;48.94;97009.75;4959767;28;20218;-25
2023/10/18 07:44:19;;;;;;;6.87;4.50;;;;;;;22.01;49.07;97004.66;4959091;28;20211;-26
2023/10/18 07:46:46;;;;;;;5.93;4.10;;;;;;;22.00;48.84;97000.38;4958339;28;20239;-25
2023/10/18 07:49:14;;;;;;;4.40;3.67;;;;;;;22.01;48.78;96994.41;4959347;28;20679;-25
2023/10/18 07:51:55;;;;;;;8.37;4.77;;;;;;;22.01;49.25;96990.97;4957132;28;20659;-25
2023/10/18 07:54:22;;;;;;;8.37;4.33;;;;;;;22.01;49.22;96993.53;4958156;28;20274;-25
2023/10/18 07:56:49;;;;;;;5.83;3.97;;;;;;;22.02;49.25;96987.63;4958775;28;20650;-25
2023/10/18 07:59:28;;;;;;;5.50;4.13;;;;;;;22.01;49.68;96976.50;4959399;28;20231;-25
2023/10/18 08:04:47;;;;;;;6.80;4.30;;;;;;;22.02;49.70;96983.34;4961741;28;20678;-25
2023/10/18 08:07:20;;;;;;;6.37;4.00;;;;;;;22.02;49.56;96987.63;4962890;28;20207;-25
2023/10/18 08:09:54;;;;;;;6.13;4.37;;;;;;;22.02;49.60;96987.63;4960688;28;20310;-25
2023/10/18 08:12:36;;;;;;;5.73;4.30;;;;;;;22.01;49.68;96983.31;4962101;28;20325;-25
2023/10/18 08:15:13;;;;;;;5.20;4.33;;;;;;;22.00;49.64;96974.78;4961063;28;20204;-25
2023/10/18 08:22:53;;;;;;;4.23;3.83;;;;;;;22.01;49.63;96979.06;4962897;28;20225;-25
2023/10/18 08:25:31;;;;;;;5.13;4.23;;;;;;;22.01;49.58;96970.50;4962927;28;20298;-25
2023/10/18 08:28:02;;;;;;;5.83;4.10;;;;;;;22.01;49.67;96970.50;4963173;28;20214;-24
2023/10/18 08:33:11;;;;;;;4.93;4.00;;;;;;;22.02;49.93;96979.94;4962785;28;20291;-26
2023/10/18 08:35:37;;;;;;;6.07;4.37;;;;;;;22.03;49.74;96968.84;4962231;28;20639;-25
2023/10/18 08:38:04;;;;;;;4.43;3.90;;;;;;;22.02;48.28;96979.94;4968074;28;20223;-24
2023/10/18 08:43:24;;;;;;;6.33;5.60;;;;;;;21.99;43.79;96977.31;4970639;28;20612;-25
2023/10/18 08:45:50;;;;;;;6.70;5.30;;;;;;;21.95;43.74;96980.63;4969386;28;20637;-25
2023/10/18 08:48:28;;;;;;;9.10;5.27;;;;;;;22.00;43.84;96982.47;4970265;28;20207;-24
2023/10/18 08:50:59;;;;;;;5.77;4.40;;;;;;;22.02;44.98;96975.66;4957014;28;20207;-24
2023/10/18 08:53:25;;;;;;;7.47;5.13;;;;;;;22.02;45.17;96972.25;4972584;28;20261;-24
2023/10/18 08:55:53;;;;;;;9.43;5.27;;;;;;;22.03;45.61;96966.31;4973015;28;20207;-25
2023/10/18 08:58:22;;;;;;;8.17;5.00;;;;;;;22.02;45.83;96955.19;4972484;28;20230;-24
2023/10/18 09:03:23;;;;;;;14.27;4.43;;;;;;;22.03;46.10;96963.75;4976797;28;20219;-25
2023/10/18 09:06:04;;;;;;;7.07;4.53;;;;;;;22.02;46.43;96968.00;4972031;28;20203;-25
2023/10/18 09:08:36;;;;;;;5.03;4.27;;;;;;;22.03;46.95;96972.28;4972085;28;20195;-25
2023/10/18 09:11:21;;;;;;;4.93;4.33;;;;;;;22.03;47.12;96972.28;4971470;28;20290;-25
2023/10/18 09:14:07;;;;;;;5.03;4.10;;;;;;;22.04;47.83;96978.25;4971686;28;20203;-25
2023/10/18 09:16:36;;;;;;;5.57;4.27;;;;;;;22.04;48.19;96974.00;4972133;28;20215;-25
2023/10/18 09:19:02;;;;;;;6.03;3.90;;;;;;;22.03;48.40;96967.19;4972346;28;20230;-25
2023/10/18 09:21:36;;;;;;;5.13;4.20;;;;;;;22.06;48.72;96961.25;4972353;28;20199;-25
2023/10/18 09:24:03;;;;;;;4.83;3.40;;;;;;;22.08;47.73;96960.41;4955370;28;20690;-25
2023/10/18 09:26:40;;;;;;;6.37;4.03;;;;;;;22.08;47.54;96955.31;4972314;28;20873;-25
2023/10/18 09:29:08;;;;;;;6.13;3.83;;;;;;;21.34;48.33;96823.47;4964486;28;20219;-25
2023/10/18 09:31:36;;;;;;;4.53;3.63;;;;;;;22.11;49.00;96949.41;4971718;28;20211;-26
2023/10/18 09:34:09;;;;;;;6.00;3.60;;;;;;;22.14;49.30;96946.91;4971259;28;20200;-25
2023/10/18 09:36:42;;;;;;;5.70;3.77;;;;;;;22.15;50.02;96952.03;4970882;28;20645;-25
2023/10/18 09:39:14;;;;;;;5.10;3.50;;;;;;;22.16;50.25;96946.06;4964122;28;20234;-25
2023/10/18 09:41:40;;;;;;;4.00;3.37;;;;;;;22.19;50.42;96937.56;4954533;28;20216;-25
2023/10/18 09:44:07;;;;;;;5.37;3.60;;;;;;;22.21;50.59;96938.47;4969545;28;20209;-25
2023/10/18 09:46:34;;;;;;;4.67;3.80;;;;;;;22.18;50.63;96925.63;4969103;28;20287;-25
2023/10/18 09:49:04;;;;;;;6.27;3.33;;;;;;;22.20;50.60;96937.59;4968487;28;20388;-25
2023/10/18 09:51:31;;;;;;;5.33;3.83;;;;;;;22.22;50.17;96935.06;4954117;28;20203;-25
2023/10/18 09:53:57;;;;;;;3.77;3.03;;;;;;;22.19;50.59;96924.78;4969534;28;20212;-25
2023/10/18 09:56:26;;;;;;;5.00;3.67;;;;;;;22.21;50.74;96918.88;4954094;28;20259;-25
2023/10/18 09:59:05;;;;;;;5.07;4.10;;;;;;;22.21;50.96;96913.75;4971034;28;20620;-25
2023/10/18 10:04:14;;;;;;;6.70;3.40;;;;;;;22.20;51.45;96906.88;4970386;28;20206;-26
2023/10/18 10:06:45;;;;;;;4.00;3.37;;;;;;;22.20;51.45;96909.44;4970777;28;20203;-24
2023/10/18 10:09:13;;;;;;;6.23;3.40;;;;;;;22.21;51.48;96911.19;4966696;28;20222;-25
2023/10/18 10:11:45;;;;;;;5.83;3.40;;;;;;;22.21;51.58;96908.63;4969964;28;20291;-25
2023/10/18 10:14:16;;;;;;;5.43;3.93;;;;;;;22.22;51.57;96907.78;4970334;28;20238;-25
2023/10/18 10:16:58;;;;;;;4.73;3.53;;;;;;;22.23;51.85;96912.06;4970684;28;20211;-25
2023/10/18 10:19:30;;;;;;;6.03;3.67;;;;;;;22.24;51.96;96910.38;4950218;28;20239;-25
2023/10/18 10:22:06;;;;;;;4.10;3.30;;;;;;;22.24;51.64;96895.88;4959337;28;20215;-26
2023/10/18 10:24:50;;;;;;;5.10;3.60;;;;;;;22.25;51.72;96884.81;4970078;28;20217;-25
2023/10/18 10:32:46;;;;;;;3.87;3.47;;;;;;;22.25;51.15;96871.13;4970040;28;20620;-25
2023/10/18 10:35:17;;;;;;;4.63;3.20;;;;;;;22.27;51.04;96872.03;4969112;28;20203;-25
2023/10/18 10:37:53;;;;;;;5.60;3.80;;;;;;;22.26;50.96;96865.19;4969730;28;20741;-25
2023/10/18 10:43:08;;;;;;;5.13;3.80;;;;;;;22.27;51.64;96849.00;4970332;28;20214;-26
2023/10/18 10:48:15;;;;;;;6.30;3.70;;;;;;;22.27;52.36;96818.28;4969647;28;20286;-25
2023/10/18 10:50:51;;;;;;;4.97;3.50;;;;;;;22.26;52.38;96831.94;4968628;28;20259;-25
2023/10/18 10:53:48;;;;;;;4.13;3.43;;;;;;;22.25;52.29;96818.25;4967592;28;20195;-26
2023/10/18 10:56:18;;;;;;;5.00;3.03;;;;;;;22.26;52.23;96821.69;4969040;28;20208;-25
2023/10/18 10:58:56;;;;;;;5.10;3.37;;;;;;;22.26;52.28;96811.44;4951970;28;20297;-25
2023/10/18 11:04:24;;;;;;;3.80;3.20;;;;;;;22.23;52.44;96790.94;4960844;28;20982;-25
2023/10/18 11:06:57;;;;;;;3.40;3.10;;;;;;;22.27;52.66;96800.34;4965848;28;20218;-25
2023/10/18 11:09:33;;;;;;;6.00;3.30;;;;;;;22.27;52.58;96793.56;4969708;28;20224;-25
2023/10/18 11:12:17;;;;;;;3.77;3.03;;;;;;;22.26;52.54;96786.69;4967215;28;20567;-25
2023/10/18 11:14:50;;;;;;;4.77;3.00;;;;;;;22.28;52.65;96789.28;4969773;28;20235;-25
2023/10/18 11:19:43;;;;;;;3.20;2.90;;;;;;;22.25;52.63;96779.00;4992744;23;20318;-26
2023/10/18 11:22:14;;;;;;;3.77;3.17;;;;;;;22.27;52.46;96760.28;5002268;28;20210;-27
2023/10/18 11:24:41;;;;;;;5.70;3.33;;;;;;;22.30;52.67;96767.13;4998023;28;20213;-28
2023/10/18 11:27:10;;;;;;;4.53;3.67;;;;;;;22.30;52.59;96762.00;4988019;28;20215;-28
2023/10/18 11:29:41;;;;;;;3.57;3.07;;;;;;;22.30;52.61;96750.09;4995090;28;20341;-27
2023/10/18 11:32:15;;;;;;;5.80;3.23;;;;;;;22.30;52.55;96744.09;4987971;28;20242;-26
2023/10/18 11:34:45;;;;;;;4.07;3.30;;;;;;;22.31;52.84;96748.34;4988007;28;20281;-30
2023/10/18 11:37:34;;;;;;;3.83;3.00;;;;;;;22.31;52.87;96735.56;4986063;28;20304;-27
2023/10/18 11:40:05;;;;;;;3.13;2.83;;;;;;;22.29;52.62;96724.47;4987203;28;20283;-26
2023/10/18 11:43:07;;;;;;;4.27;3.67;;;;;;;22.32;52.90;96719.38;4970631;28;20210;-28
2023/10/18 11:45:36;;;;;;;4.83;2.80;;;;;;;22.32;52.99;96715.09;4984704;28;20214;-27
2023/10/18 11:48:07;;;;;;;4.30;3.00;;;;;;;22.30;52.99;96709.13;4986526;28;20629;-36
2023/10/18 11:50:47;;;;;;;3.20;2.90;;;;;;;22.32;52.83;96709.16;4985622;28;20310;-31
2023/10/18 11:53:17;;;;;;;4.17;3.27;;;;;;;22.32;52.83;96711.72;4987054;28;20222;-32
2023/10/18 11:55:56;;;;;;;3.73;3.40;;;;;;;22.32;52.90;96706.59;4984376;28;20216;-27
2023/10/18 11:58:23;;;;;;;4.87;3.30;;;;;;;22.33;52.66;96700.63;4984221;28;20206;-30
2023/10/18 12:00:55;;;;;;;3.50;3.00;;;;;;;22.32;52.89;96694.63;4985196;28;20231;-28
2023/10/18 12:03:23;;;;;;;4.27;2.77;;;;;;;22.33;52.92;96695.50;4970112;28;20624;-28
2023/10/18 12:05:50;;;;;;;3.77;2.87;;;;;;;22.33;52.92;96692.94;4983954;28;20203;-32
2023/10/18 12:08:17;;;;;;;3.93;2.90;;;;;;;22.29;52.86;96684.34;4981105;28;20662;-27
2023/10/18 12:10:44;;;;;;;3.20;2.90;;;;;;;22.32;52.96;96676.72;4979410;28;20234;-26
2023/10/18 12:13:13;;;;;;;3.77;2.90;;;;;;;22.32;52.94;96670.75;4981225;28;20207;-28
2023/10/18 12:15:40;;;;;;;3.40;3.03;;;;;;;22.32;52.97;96658.78;4987353;28;20207;-30
2023/10/18 12:18:08;;;;;;;3.47;3.17;;;;;;;22.32;53.04;96655.41;4986152;28;20230;-29
2023/10/18 12:20:35;;;;;;;3.73;3.13;;;;;;;22.32;53.01;96656.22;4993644;28;20234;-28
2023/10/18 12:23:10;;;;;;;3.97;2.93;;;;;;;22.33;53.10;96659.66;4987270;28;20736;-28
2023/10/18 12:25:42;;;;;;;4.07;2.70;;;;;;;22.32;52.92;96653.66;4986340;28;20712;-36
2023/10/18 12:28:12;;;;;;;3.43;3.07;;;;;;;22.32;53.06;96642.59;4989955;28;20266;-28
2023/10/18 12:30:51;;;;;;;3.20;2.90;;;;;;;22.32;52.85;96633.19;4976943;28;20234;-27
2023/10/18 12:33:27;;;;;;;4.17;3.03;;;;;;;22.33;53.02;96627.25;4993628;28;20681;-28
2023/10/18 12:35:59;;;;;;;4.23;2.83;;;;;;;22.33;52.88;96636.63;4992039;28;20199;-33
2023/10/18 12:38:32;;;;;;;3.33;2.87;;;;;;;22.33;52.96;96642.63;4979626;28;20236;-33
2023/10/18 12:41:00;;;;;;;3.20;2.90;;;;;;;22.33;52.93;96640.06;4982613;28;20248;-38
2023/10/18 12:43:31;;;;;;;3.67;3.00;;;;;;;22.33;52.96;96629.81;4983047;28;20217;-26
2023/10/18 12:46:00;;;;;;;4.13;3.30;;;;;;;22.33;52.99;96627.25;4994555;28;20330;-26
2023/10/18 12:48:27;;;;;;;4.03;2.93;;;;;;;22.34;53.13;96620.41;4987387;28;20215;-26
2023/10/18 12:50:54;;;;;;;3.37;3.00;;;;;;;22.34;53.03;96611.03;4990839;28;20277;-29
2023/10/18 12:55:58;;;;;;;3.67;2.50;;;;;;;22.35;53.16;96622.16;4994653;28;20206;-32
2023/10/18 12:58:32;;;;;;;4.00;2.80;;;;;;;22.35;52.65;96614.47;4986204;28;20199;-28
2023/10/18 13:01:22;;;;;;;3.83;3.10;;;;;;;22.35;52.44;96620.44;4989485;28;20224;-34
2023/10/18 13:03:45;;;;;;;4.23;2.90;;;;;;;22.36;52.23;96603.38;4979612;28;20202;-30